Nearby METAR Reports

 

KOZR - Ozark/Cairns Aaf, Alabama, USA
Distance from station: SSW 2mi, 3km
Updated: Wed, 23-Aug-2017 10:56pm CDT
Clear
Clear
 Wind from calm
Wind: Calm
Temperature: 79°F , 26°C
Dew Point: 75°F , 24°C
Humidity: 89%
Barometer: 29.91 inHg , 1012.9 hPa
Clouds: Clear
Visibility: 10 miles , 16 km
2017/08/24 03:56 KOZR 240356Z AUTO 00000KT 10SM CLR 26/24 A2991 RMK AO2 SLP127 T02570243 $
KLOR - Lowe Ahp/Ft. Ruc, Alabama, USA
Distance from station: NW 4mi, 6km
Updated: Wed, 23-Aug-2017 10:58pm CDT
Mostly cloudy
Mostly cloudy
 Wind from calm
Wind: Calm
Temperature: 79°F , 26°C
Dew Point: 75°F , 24°C
Humidity: 89%
Barometer: 29.90 inHg , 1012.5 hPa
Clouds: Mostly cloudy
Visibility: 10 miles , 16 km
Cloud details: Mostly cloudy 25000 ft
2017/08/24 03:58 KLOR 240358Z AUTO 00000KT 10SM BKN250 26/24 A2990 RMK AO2 SLP106 T02600242 $
 
KHEY - Ft Rucker/Hanche, Alabama, USA
Distance from station: NE 4mi, 7km
Updated: Wed, 23-Aug-2017 10:58pm CDT
Clear
Clear
 Wind from SSW
Wind: SSW 3 mph , 6 km/h
Temperature: 79°F , 26°C
Dew Point: 75°F , 24°C
Humidity: 89%
Barometer: 29.90 inHg , 1012.5 hPa
Clouds: Clear
Visibility: 10 miles , 16 km
2017/08/24 03:58 KHEY 240358Z AUTO 21003KT 10SM CLR 26/24 A2990 RMK AO2 SLP124 T02590243 $
KSXS - Ft Rucker/Shell, Alabama, USA
Distance from station: WNW 9mi, 15km
Updated: Wed, 23-Aug-2017 10:58pm CDT
Overcast
Overcast
 Wind from NNW
Wind: NNW 3 mph , 6 km/h
Temperature: 79°F , 26°C
Dew Point: 75°F , 24°C
Humidity: 89%
Barometer: 29.90 inHg , 1012.5 hPa
Clouds: Overcast
Visibility: 10 miles , 16 km
Cloud details: Overcast 21000 ft
2017/08/24 03:58 KSXS 240358Z AUTO 33003KT 10SM OVC210 26/24 A2990 RMK AO2 SLP123 T02640239
 
KEDN - Enterprise, Alabama, USA
Distance from station: W 11mi, 18km
Updated: Wed, 23-Aug-2017 11:35pm CDT
Clear
Clear
 Wind from calm
Wind: Calm
Temperature: 79°F , 26°C
Dew Point: 77°F , 25°C
Humidity: 94%
Barometer: 29.90 inHg , 1012.5 hPa
Clouds: Clear
Visibility: 10 miles , 16 km
2017/08/24 04:35 KEDN 240435Z AUTO 00000KT 10SM CLR 26/25 A2990 RMK AO2 T02560250
KDHN - Dothan, Alabama, USA
Distance from station: E 15mi, 24km
Updated: Wed, 23-Aug-2017 10:53pm CDT
Clear
Clear
 Wind from WNW
Wind: WNW 5 mph , 7 km/h
Temperature: 81°F , 27°C
Heat Index: 87°F , 31°C
Dew Point: 75°F , 24°C
Humidity: 84%
Barometer: 29.94 inHg , 1013.9 hPa
Clouds: Clear
Visibility: 10 miles , 16 km
2017/08/24 03:53 KDHN 240353Z AUTO 30004KT 10SM CLR 27/24 A2994 RMK AO2 SLP132 T02670244
 
K1J0 - Bonifay Tri-Cty, Florida, USA
Distance from station: SSE 32mi, 52km
Updated: Mon, 21-Aug-2017 4:58pm CDT
NOT Current
Thunderstorm, Clear
Thunderstorm, Clear
 Wind from calm
Wind: Calm
Temperature: 79°F , 26°C
Dew Point: 77°F , 25°C
Humidity: 94%
Barometer: 30.10 inHg , 1019.3 hPa
Summary: Thunderstorm
Clouds: Clear
Visibility: 10 miles , 16 km
2017/08/21 21:58 K1J0 212158Z AUTO 00000KT 10SM TS CLR 26/25 A3010 RMK AO2 RAE09 TSB13E41B58 SLP150 P0000 T02560250 $
K0J4 - Florala Muni, Alabama, USA
Distance from station: WSW 40mi, 65km
Updated: Wed, 23-Aug-2017 10:58pm CDT

 
Barometer: 29.94 inHg , 1013.9 hPa
2017/08/24 03:58 K0J4 240358Z AUTO A2994 RMK AO2 SLPNO PWINO FZRANO TSNO $
 
K79J - Andalusia/Opp Ar, Alabama, USA
Distance from station: W 41mi, 66km
Updated: Wed, 23-Aug-2017 10:56pm CDT
Few Clouds
Few Clouds
 Wind from NW
Wind: NW 6 mph , 9 km/h
Temperature: 81°F , 27°C
Heat Index: 85°F , 29°C
Dew Point: 72°F , 22°C
Humidity: 74%
Barometer: 29.91 inHg , 1012.9 hPa
Clouds: Few Clouds
Visibility: 10 miles , 16 km
Cloud details: Few Clouds 5500 ft
2017/08/24 03:56 K79J 240356Z AUTO 31005KT 10SM FEW055 27/22 A2991 RMK AO2 RAE10 SLP123 P0000 T02670222
KTOI - Troy, Alabama, USA
Distance from station: NNW 42mi, 67km
Updated: Wed, 23-Aug-2017 10:53pm CDT
Clear
Clear
 Wind from calm
Wind: Calm
Temperature: 75°F , 24°C
Dew Point: 75°F , 24°C
Humidity: 100%
Barometer: 29.92 inHg , 1013.2 hPa
Clouds: Clear
Visibility: 10 miles , 16 km
2017/08/24 03:53 KTOI 240353Z AUTO 00000KT 10SM CLR 24/24 A2992 RMK AO2 SLP125 T02440244
 
KMAI - Marianna, Florida, USA
Distance from station: SE 45mi, 73km
Updated: Wed, 23-Aug-2017 10:53pm CDT
Clear
Clear
 Wind from W
Wind: W 6 mph , 9 km/h
Temperature: 82°F , 28°C
Heat Index: 89°F , 32°C
Dew Point: 75°F , 24°C
Humidity: 79%
Barometer: 29.90 inHg , 1012.5 hPa
Clouds: Clear
Visibility: 10 miles , 16 km
2017/08/24 03:53 KMAI 240353Z AUTO 26005KT 10SM CLR 28/24 A2990 RMK AO2 SLP121 T02780239
K54J - De Funiak Sprngs, Florida, USA
Distance from station: SSW 48mi, 77km
Updated: Wed, 23-Aug-2017 11:35pm CDT
Clear
Clear
 Wind from calm
Wind: Calm
Temperature: 77°F , 25°C
Dew Point: 72°F , 22°C
Humidity: 83%
Barometer: 29.92 inHg , 1013.2 hPa
Clouds: Clear
Visibility: 10 miles , 16 km
2017/08/24 04:35 K54J 240435Z AUTO 00000KT 10SM CLR 25/22 A2992 RMK AO2 T02500221
 
KBIJ - Blakely Early C, Georgia, USA
Distance from station: E 48mi, 77km
Updated: Wed, 23-Aug-2017 11:35pm CDT
Mostly cloudy
Mostly cloudy
 Wind from calm
Wind: Calm
Temperature: 79°F , 26°C
Dew Point: 75°F , 24°C
Humidity: 89%
Barometer: 29.90 inHg , 1012.5 hPa
Clouds: Mostly cloudy
Visibility: 10 miles , 16 km
Cloud details: Mostly cloudy 6000 ft
2017/08/24 04:35 KBIJ 240435Z AUTO 00000KT 10SM BKN060 26/24 A2990 RMK AO2
KEUF - Eufaula, Alabama, USA
Distance from station: NE 56mi, 90km
Updated: Wed, 23-Aug-2017 10:58pm CDT
Clear
Clear
 Wind from calm
Wind: Calm
Temperature: 75°F , 24°C
Dew Point: 73°F , 23°C
Humidity: 94%
Barometer: 29.90 inHg , 1012.5 hPa
Clouds: Clear
Visibility: 10 miles , 16 km
2017/08/24 03:58 KEUF 240358Z AUTO 00000KT 10SM CLR 24/23 A2990 RMK AO2 SLP120 T02390228
 
KCEW - Crestview, Florida, USA
Distance from station: SW 60mi, 97km
Updated: Wed, 23-Aug-2017 10:53pm CDT
Clear
Clear
 Wind from NNW
Wind: NNW 3 mph , 6 km/h
Temperature: 77°F , 25°C
Dew Point: 73°F , 23°C
Humidity: 89%
Barometer: 29.92 inHg , 1013.2 hPa
Clouds: Clear
Visibility: 10 miles , 16 km
2017/08/24 03:53 KCEW 240353Z AUTO 33003KT 10SM CLR 25/23 A2992 RMK AO2 SLP128 T02500228
KPRN - Greenville, Alabama, USA
Distance from station: NW 65mi, 105km
Updated: Wed, 23-Aug-2017 10:56pm CDT
Clear
Clear
 Wind from calm
Wind: Calm
Temperature: 79°F , 26°C
Dew Point: 70°F , 21°C
Humidity: 74%
Barometer: 29.92 inHg , 1013.2 hPa
Clouds: Clear
Visibility: 10 miles , 16 km
2017/08/24 03:56 KPRN 240356Z AUTO 00000KT 10SM CLR 26/21 A2992 RMK AO2 SLP126 T02560211 $
 
KECP - Panama City, Florida, USA
Distance from station: S 67mi, 107km
Updated: Wed, 23-Aug-2017 10:53pm CDT
Clear
Clear
 Wind from calm
Wind: Calm
Temperature: 81°F , 27°C
Heat Index: 87°F , 31°C
Dew Point: 75°F , 24°C
Humidity: 84%
Barometer: 29.89 inHg , 1012.2 hPa
Clouds: Clear
Visibility: 10 miles , 16 km
2017/08/24 03:53 KECP 240353Z AUTO 00000KT 10SM CLR 27/24 A2989 RMK AO2 SLP133 T02720244
KEGI - Duke Fld/Eglin, Florida, USA
Distance from station: SW 67mi, 108km
Updated: Wed, 23-Aug-2017 10:55pm CDT
Mostly cloudy
Mostly cloudy
 Wind from calm
Wind: Calm
Temperature: 75°F , 24°C
Dew Point: 73°F , 23°C
Humidity: 94%
Barometer: 29.91 inHg , 1012.9 hPa
Clouds: Mostly cloudy
Visibility: 10 miles , 16 km
Cloud details: Mostly cloudy 17000 ft
Mostly cloudy 23000 ft
2017/08/24 03:55 KEGI 240355Z 00000KT 10SM BKN170 BKN230 24/23 A2991 RMK AO2A SLP128 T02440228 $
 
KBGE - Bainbridge, Georgia, USA
Distance from station: ESE 68mi, 109km
Updated: Wed, 23-Aug-2017 11:35pm CDT
Clear
Clear
 Wind from calm
Wind: Calm
Temperature: 81°F , 27°C
Heat Index: 89°F , 32°C
Dew Point: 79°F , 26°C
Humidity: 94%
Barometer: 29.90 inHg , 1012.5 hPa
Clouds: Clear
Visibility: 10 miles , 16 km
2017/08/24 04:35 KBGE 240435Z AUTO 00000KT 10SM CLR 27/26 A2990 RMK AO2
KVPS - Eglin Afb/Valpar, Florida, USA
Distance from station: SW 75mi, 121km
Updated: Wed, 23-Aug-2017 10:55pm CDT
Mostly cloudy
Mostly cloudy
 Wind from N
Wind: N 5 mph , 7 km/h
Temperature: 77°F , 25°C
Dew Point: 73°F , 23°C
Humidity: 89%
Barometer: 29.90 inHg , 1012.5 hPa
Clouds: Mostly cloudy
Visibility: 10 miles , 16 km
Cloud details: Partly cloudy 18000 ft
Mostly cloudy 25000 ft
2017/08/24 03:55 KVPS 240355Z 36004KT 10SM SCT180 BKN250 25/23 A2990 RMK AO2A SLP131 T02540225 $